TimeCDT,TemperatureF,Dew PointF,Humidity,Sea Level PressureIn,VisibilityMPH,Wind Direction,Wind SpeedMPH,Gust SpeedMPH,PrecipitationIn,Events,Conditions,WindDirDegrees,DateUTC
12:15 AM,62.6,57.2,82,30.23,10.0,NE,4.6,-,N/A,,Clear,40,2013-10-14 05:15:00
12:35 AM,62.6,57.2,82,30.22,10.0,NE,6.9,-,N/A,,Clear,50,2013-10-14 05:35:00
12:55 AM,62.6,57.2,82,30.23,10.0,NE,4.6,-,N/A,,Clear,40,2013-10-14 05:55:00
1:15 AM,62.6,57.2,82,30.23,10.0,NNE,3.5,-,N/A,,Clear,30,2013-10-14 06:15:00
1:35 AM,62.6,57.2,82,30.23,10.0,ENE,3.5,-,N/A,,Clear,60,2013-10-14 06:35:00
1:55 AM,62.6,57.2,82,30.23,8.0,NE,3.5,-,N/A,,Clear,50,2013-10-14 06:55:00
2:15 AM,60.8,57.2,88,30.23,10.0,Calm,Calm,-,N/A,,Clear,0,2013-10-14 07:15:00
2:35 AM,60.8,57.2,88,30.23,10.0,NNE,3.5,-,N/A,,Clear,30,2013-10-14 07:35:00
2:55 AM,60.8,57.2,88,30.23,10.0,Calm,Calm,-,N/A,,Clear,0,2013-10-14 07:55:00
3:15 AM,60.8,57.2,88,30.23,10.0,NNE,5.8,-,N/A,,Clear,20,2013-10-14 08:15:00
3:35 AM,60.8,57.2,88,30.23,10.0,NNE,3.5,-,N/A,,Clear,30,2013-10-14 08:35:00
3:55 AM,60.8,57.2,88,30.23,10.0,Calm,Calm,-,N/A,,Clear,0,2013-10-14 08:55:00
4:15 AM,60.8,57.2,88,30.23,10.0,NNE,3.5,-,N/A,,Clear,30,2013-10-14 09:15:00
4:35 AM,60.8,57.2,88,30.23,9.0,NE,5.8,-,N/A,,Clear,40,2013-10-14 09:35:00
4:55 AM,60.8,57.2,88,30.24,8.0,NE,5.8,-,N/A,,Clear,50,2013-10-14 09:55:00
5:15 AM,60.8,57.2,88,30.23,7.0,NE,3.5,-,N/A,,Clear,50,2013-10-14 10:15:00
5:35 AM,60.8,57.2,88,30.24,7.0,NE,3.5,-,N/A,,Clear,50,2013-10-14 10:35:00
5:55 AM,59.0,57.2,94,30.24,8.0,Calm,Calm,-,N/A,,Clear,0,2013-10-14 10:55:00
6:15 AM,59.0,57.2,94,30.24,7.0,Calm,Calm,-,N/A,,Clear,0,2013-10-14 11:15:00
6:35 AM,59.0,57.2,94,30.24,4.0,Calm,Calm,-,N/A,,Clear,0,2013-10-14 11:35:00
6:55 AM,57.2,57.2,100,30.24,4.0,Calm,Calm,-,N/A,,Clear,0,2013-10-14 11:55:00
7:15 AM,57.2,57.2,100,30.25,6.0,Calm,Calm,-,N/A,,Clear,0,2013-10-14 12:15:00
7:35 AM,59.0,57.2,94,30.25,4.0,ENE,4.6,-,N/A,,Clear,60,2013-10-14 12:35:00
7:55 AM,60.8,57.2,88,30.25,6.0,Calm,Calm,-,N/A,,Clear,0,2013-10-14 12:55:00
8:15 AM,60.8,57.2,88,30.26,5.0,Calm,Calm,-,N/A,,Clear,0,2013-10-14 13:15:00
8:35 AM,62.6,57.2,82,30.26,7.0,Calm,Calm,-,N/A,,Clear,0,2013-10-14 13:35:00
8:55 AM,64.4,57.2,77,30.25,4.0,NE,4.6,-,N/A,,Clear,40,2013-10-14 13:55:00
9:15 AM,64.4,59.0,83,30.25,4.0,ENE,3.5,-,N/A,,Clear,70,2013-10-14 14:15:00
9:35 AM,66.2,59.0,78,30.25,5.0,Calm,Calm,-,N/A,,Clear,0,2013-10-14 14:35:00
9:55 AM,69.8,59.0,68,30.25,9.0,Calm,Calm,-,N/A,,Clear,0,2013-10-14 14:55:00
10:15 AM,69.8,57.2,64,30.25,4.0,Calm,Calm,-,N/A,,Clear,0,2013-10-14 15:15:00
10:35 AM,71.6,57.2,60,30.25,3.0,East,5.8,-,N/A,,Clear,100,2013-10-14 15:35:00
10:55 AM,71.6,57.2,60,30.24,10.0,ESE,3.5,-,N/A,,Clear,110,2013-10-14 15:55:00
11:15 AM,73.4,57.2,57,30.23,10.0,Calm,Calm,-,N/A,,Clear,0,2013-10-14 16:15:00
11:35 AM,73.4,57.2,57,30.22,10.0,East,4.6,-,N/A,,Clear,90,2013-10-14 16:35:00
11:55 AM,75.2,59.0,57,30.22,9.0,Calm,Calm,-,N/A,,Clear,0,2013-10-14 16:55:00
12:15 PM,75.2,57.2,53,30.21,10.0,North,5.8,-,N/A,,Clear,360,2013-10-14 17:15:00
12:35 PM,77.0,55.4,47,30.20,10.0,ENE,5.8,-,N/A,,Clear,70,2013-10-14 17:35:00
12:55 PM,78.8,57.2,47,30.18,10.0,North,4.6,-,N/A,,Clear,10,2013-10-14 17:55:00
1:15 PM,78.8,57.2,47,30.17,10.0,NW,5.8,-,N/A,,Clear,320,2013-10-14 18:15:00
1:35 PM,77.0,55.4,47,30.16,10.0,East,5.8,-,N/A,,Clear,80,2013-10-14 18:35:00
1:55 PM,78.8,55.4,44,30.16,10.0,Variable,4.6,-,N/A,,Clear,0,2013-10-14 18:55:00
2:15 PM,78.8,57.2,47,30.15,10.0,NNE,8.1,-,N/A,,Partly Cloudy,30,2013-10-14 19:15:00
2:35 PM,78.8,55.4,44,30.14,10.0,NNE,5.8,-,N/A,,Partly Cloudy,30,2013-10-14 19:35:00
2:55 PM,78.8,57.2,47,30.13,10.0,Variable,5.8,-,N/A,,Partly Cloudy,0,2013-10-14 19:55:00
3:15 PM,78.8,57.2,47,30.13,10.0,NNW,5.8,-,N/A,,Clear,330,2013-10-14 20:15:00
3:35 PM,78.8,57.2,47,30.13,10.0,North,6.9,-,N/A,,Scattered Clouds,10,2013-10-14 20:35:00
3:55 PM,78.8,57.2,47,30.13,10.0,North,4.6,-,N/A,,Mostly Cloudy,350,2013-10-14 20:55:00
4:15 PM,78.8,57.2,47,30.13,10.0,North,4.6,-,N/A,,Scattered Clouds,360,2013-10-14 21:15:00
4:35 PM,77.0,57.2,50,30.13,10.0,North,3.5,-,N/A,,Scattered Clouds,360,2013-10-14 21:35:00
4:55 PM,75.2,59.0,57,30.13,10.0,NNW,4.6,-,N/A,,Partly Cloudy,340,2013-10-14 21:55:00
5:15 PM,75.2,57.2,53,30.14,10.0,North,4.6,-,N/A,,Clear,360,2013-10-14 22:15:00
5:35 PM,75.2,59.0,57,30.14,10.0,NNE,5.8,-,N/A,,Clear,20,2013-10-14 22:35:00
5:55 PM,75.2,59.0,57,30.14,10.0,NE,3.5,-,N/A,,Partly Cloudy,40,2013-10-14 22:55:00
6:15 PM,73.4,60.8,65,30.13,10.0,ENE,6.9,-,N/A,,Mostly Cloudy,60,2013-10-14 23:15:00
6:35 PM,71.6,60.8,69,30.13,10.0,NE,5.8,-,N/A,,Mostly Cloudy,50,2013-10-14 23:35:00
6:55 PM,71.6,60.8,69,30.14,10.0,ENE,5.8,-,N/A,,Mostly Cloudy,60,2013-10-14 23:55:00
7:15 PM,71.6,60.8,69,30.14,10.0,NE,5.8,-,N/A,,Overcast,50,2013-10-15 00:15:00
7:35 PM,69.8,60.8,73,30.14,10.0,NE,4.6,-,N/A,,Scattered Clouds,40,2013-10-15 00:35:00
7:55 PM,69.8,60.8,73,30.14,10.0,ENE,5.8,-,N/A,,Scattered Clouds,60,2013-10-15 00:55:00
8:15 PM,69.8,60.8,73,30.14,9.0,Calm,Calm,-,N/A,,Partly Cloudy,0,2013-10-15 01:15:00
8:35 PM,68.0,60.8,78,30.15,10.0,NE,3.5,-,N/A,,Scattered Clouds,50,2013-10-15 01:35:00
8:55 PM,66.2,60.8,83,30.14,10.0,ENE,4.6,-,N/A,,Partly Cloudy,60,2013-10-15 01:55:00
9:15 PM,66.2,60.8,83,30.15,9.0,ENE,3.5,-,N/A,,Clear,60,2013-10-15 02:15:00
9:35 PM,66.2,60.8,83,30.15,5.0,ENE,4.6,-,N/A,,Clear,70,2013-10-15 02:35:00
9:55 PM,66.2,60.8,83,30.16,4.0,ENE,3.5,-,N/A,,Clear,70,2013-10-15 02:55:00
10:15 PM,66.2,60.8,83,30.17,7.0,Calm,Calm,-,N/A,,Clear,0,2013-10-15 03:15:00
10:35 PM,64.4,60.8,88,30.17,3.0,Calm,Calm,-,N/A,,Mostly Cloudy,0,2013-10-15 03:35:00
10:55 PM,64.4,60.8,88,30.17,3.0,Calm,Calm,-,N/A,,Partly Cloudy,0,2013-10-15 03:55:00
11:15 PM,64.4,60.8,88,30.16,3.0,Calm,Calm,-,N/A,,Clear,0,2013-10-15 04:15:00
11:35 PM,60.8,57.2,88,30.16,6.0,Calm,Calm,-,N/A,,Clear,0,2013-10-15 04:35:00
11:55 PM,60.8,59.0,94,30.16,7.0,Calm,Calm,-,N/A,,Partly Cloudy,0,2013-10-15 04:55:00